Terminal Aerodrome Forecast
Issued by NWS

Home | Current Version | Previous Version | Text Only | Print | Product List | Glossary On
Versions: 1 2 3 4 5 6 7 8 9 10 11 12 13 14 15 16 17 18 19 20
144
FTUS43 KICT 131323 AAA
TAFRSL
TAF AMD
KRSL 131323Z 1313/1412 10010KT P6SM SCT012 OVC110
     FM131400 13014KT P6SM SCT012 OVC035
     FM131800 16017KT P6SM BKN035 OVC150
     FM132100 17015G23KT P6SM SCT150
     FM140000 14013KT P6SM SCT150
     FM140800 29006KT P6SM SCT150=

USA.gov is the U.S. government's official web portal to all federal, state and local government web resources and services.